sensor_id;sensor_type;location;lat;lon;timestamp;pressure;altitude;pressure_sealevel;temperature;humidity
75438;BME280;64015;49.392;15.582;2023-03-26T00:01:19;94937.88;;;3.68;89.81
75438;BME280;64015;49.392;15.582;2023-03-26T00:03:46;94946.06;;;3.77;89.88
75438;BME280;64015;49.392;15.582;2023-03-26T00:06:23;94939.13;;;3.88;89.04
75438;BME280;64015;49.392;15.582;2023-03-26T00:08:50;94931.34;;;3.93;88.26
75438;BME280;64015;49.392;15.582;2023-03-26T00:11:18;94932.00;;;4.05;87.66
75438;BME280;64015;49.392;15.582;2023-03-26T00:13:44;94927.34;;;4.12;86.59
75438;BME280;64015;49.392;15.582;2023-03-26T00:16:13;94929.59;;;3.98;87.58
75438;BME280;64015;49.392;15.582;2023-03-26T00:18:40;94934.59;;;4.05;87.69
75438;BME280;64015;49.392;15.582;2023-03-26T00:21:16;94925.09;;;3.94;88.50
75438;BME280;64015;49.392;15.582;2023-03-26T00:23:43;94945.53;;;4.02;87.48
75438;BME280;64015;49.392;15.582;2023-03-26T00:26:09;94933.03;;;4.04;87.30
75438;BME280;64015;49.392;15.582;2023-03-26T00:28:40;94937.25;;;4.10;87.75
75438;BME280;64015;49.392;15.582;2023-03-26T00:31:10;94943.16;;;4.00;87.44
75438;BME280;64015;49.392;15.582;2023-03-26T00:33:37;94946.78;;;3.99;88.46
75438;BME280;64015;49.392;15.582;2023-03-26T00:36:10;94944.28;;;4.09;87.14
75438;BME280;64015;49.392;15.582;2023-03-26T00:38:39;94941.09;;;4.02;87.54
75438;BME280;64015;49.392;15.582;2023-03-26T00:41:08;94948.53;;;3.89;88.25
75438;BME280;64015;49.392;15.582;2023-03-26T00:43:45;94939.63;;;3.85;89.46
75438;BME280;64015;49.392;15.582;2023-03-26T00:46:11;94940.19;;;3.92;88.80
75438;BME280;64015;49.392;15.582;2023-03-26T00:48:37;94936.34;;;3.99;87.88
75438;BME280;64015;49.392;15.582;2023-03-26T00:51:04;94922.28;;;4.00;87.65
75438;BME280;64015;49.392;15.582;2023-03-26T00:53:31;94926.13;;;3.93;88.26
75438;BME280;64015;49.392;15.582;2023-03-26T00:55:57;94921.75;;;3.98;88.34
75438;BME280;64015;49.392;15.582;2023-03-26T00:58:26;94924.16;;;4.05;88.75
75438;BME280;64015;49.392;15.582;2023-03-26T01:01:04;94917.38;;;4.04;88.17
75438;BME280;64015;49.392;15.582;2023-03-26T01:03:33;94918.16;;;4.04;88.85
75438;BME280;64015;49.392;15.582;2023-03-26T01:06:12;94920.28;;;4.07;88.52
75438;BME280;64015;49.392;15.582;2023-03-26T01:08:42;94912.72;;;4.11;89.25
75438;BME280;64015;49.392;15.582;2023-03-26T01:11:35;94914.53;;;4.05;89.36
75438;BME280;64015;49.392;15.582;2023-03-26T01:14:04;94910.56;;;4.03;89.18
75438;BME280;64015;49.392;15.582;2023-03-26T01:19:05;94921.03;;;4.08;89.13
75438;BME280;64015;49.392;15.582;2023-03-26T01:21:35;94914.97;;;3.97;90.17
75438;BME280;64015;49.392;15.582;2023-03-26T01:24:07;94918.38;;;3.98;89.77
75438;BME280;64015;49.392;15.582;2023-03-26T01:37:49;94908.06;;;4.13;90.20
75438;BME280;64015;49.392;15.582;2023-03-26T01:40:27;94908.06;;;4.13;89.52
75438;BME280;64015;49.392;15.582;2023-03-26T01:45:42;94916.44;;;4.15;90.39
75438;BME280;64015;49.392;15.582;2023-03-26T01:48:10;94911.25;;;4.20;89.74
75438;BME280;64015;49.392;15.582;2023-03-26T01:50:36;94906.72;;;4.10;90.39
75438;BME280;64015;49.392;15.582;2023-03-26T01:53:04;94902.88;;;4.18;89.68
75438;BME280;64015;49.392;15.582;2023-03-26T02:01:49;94882.91;;;4.02;91.46
75438;BME280;64015;49.392;15.582;2023-03-26T02:04:32;94885.47;;;3.97;91.22
75438;BME280;64015;49.392;15.582;2023-03-26T02:07:10;94899.91;;;4.04;90.84
75438;BME280;64015;49.392;15.582;2023-03-26T02:09:42;94887.63;;;4.05;90.14
75438;BME280;64015;49.392;15.582;2023-03-26T02:12:12;94896.84;;;4.12;88.46
75438;BME280;64015;49.392;15.582;2023-03-26T02:14:38;94895.13;;;4.28;87.23
75438;BME280;64015;49.392;15.582;2023-03-26T02:17:06;94898.91;;;4.42;86.20
75438;BME280;64015;49.392;15.582;2023-03-26T02:19:34;94884.81;;;4.43;86.09
75438;BME280;64015;49.392;15.582;2023-03-26T02:22:00;94886.09;;;4.41;86.13
75438;BME280;64015;49.392;15.582;2023-03-26T02:24:26;94905.00;;;4.53;84.71
75438;BME280;64015;49.392;15.582;2023-03-26T02:26:52;94889.91;;;4.60;83.89
75438;BME280;64015;49.392;15.582;2023-03-26T02:29:17;94890.75;;;4.71;83.11
75438;BME280;64015;49.392;15.582;2023-03-26T02:31:46;94874.09;;;4.82;81.95
75438;BME280;64015;49.392;15.582;2023-03-26T02:34:13;94889.84;;;4.92;80.32
75438;BME280;64015;49.392;15.582;2023-03-26T02:36:39;94875.97;;;4.92;80.50
75438;BME280;64015;49.392;15.582;2023-03-26T02:39:08;94890.66;;;4.98;79.50
75438;BME280;64015;49.392;15.582;2023-03-26T02:41:36;94899.03;;;5.00;78.93
75438;BME280;64015;49.392;15.582;2023-03-26T02:44:03;94893.34;;;5.13;77.67
75438;BME280;64015;49.392;15.582;2023-03-26T02:46:32;94906.19;;;5.19;77.23
75438;BME280;64015;49.392;15.582;2023-03-26T02:48:57;94890.28;;;5.26;77.11
75438;BME280;64015;49.392;15.582;2023-03-26T02:51:23;94908.84;;;5.30;76.98
75438;BME280;64015;49.392;15.582;2023-03-26T02:53:50;94902.03;;;5.29;77.29
75438;BME280;64015;49.392;15.582;2023-03-26T02:56:19;94898.13;;;5.26;76.96
75438;BME280;64015;49.392;15.582;2023-03-26T02:58:45;94889.00;;;5.34;76.75
75438;BME280;64015;49.392;15.582;2023-03-26T03:01:11;94899.22;;;5.35;76.77
75438;BME280;64015;49.392;15.582;2023-03-26T03:03:37;94924.31;;;5.36;77.10
75438;BME280;64015;49.392;15.582;2023-03-26T03:06:03;94900.75;;;5.31;77.46
75438;BME280;64015;49.392;15.582;2023-03-26T03:08:29;94889.25;;;5.32;78.37
75438;BME280;64015;49.392;15.582;2023-03-26T03:11:02;94894.44;;;5.17;79.13
75438;BME280;64015;49.392;15.582;2023-03-26T03:13:31;94901.72;;;5.15;79.89
75438;BME280;64015;49.392;15.582;2023-03-26T03:15:57;94892.84;;;5.16;79.94
75438;BME280;64015;49.392;15.582;2023-03-26T03:18:22;94897.22;;;5.05;80.88
75438;BME280;64015;49.392;15.582;2023-03-26T03:20:48;94909.22;;;5.01;80.74
75438;BME280;64015;49.392;15.582;2023-03-26T03:23:14;94895.91;;;4.98;81.43
75438;BME280;64015;49.392;15.582;2023-03-26T03:25:40;94898.72;;;4.91;82.92
75438;BME280;64015;49.392;15.582;2023-03-26T03:28:06;94900.28;;;4.87;82.63
75438;BME280;64015;49.392;15.582;2023-03-26T03:30:33;94901.78;;;4.83;83.21
75438;BME280;64015;49.392;15.582;2023-03-26T03:32:58;94891.25;;;4.68;84.03
75438;BME280;64015;49.392;15.582;2023-03-26T03:35:25;94895.38;;;4.59;85.41
75438;BME280;64015;49.392;15.582;2023-03-26T03:37:52;94891.69;;;4.55;86.25
75438;BME280;64015;49.392;15.582;2023-03-26T03:40:18;94889.53;;;4.46;86.11
75438;BME280;64015;49.392;15.582;2023-03-26T03:42:44;94893.44;;;4.44;86.27
75438;BME280;64015;49.392;15.582;2023-03-26T03:45:11;94902.06;;;4.44;86.49
75438;BME280;64015;49.392;15.582;2023-03-26T03:47:36;94904.13;;;4.42;86.11
75438;BME280;64015;49.392;15.582;2023-03-26T03:50:03;94905.16;;;4.41;85.94
75438;BME280;64015;49.392;15.582;2023-03-26T03:52:28;94902.00;;;4.34;85.93
75438;BME280;64015;49.392;15.582;2023-03-26T03:54:55;94896.78;;;4.34;86.74
75438;BME280;64015;49.392;15.582;2023-03-26T03:57:25;94903.50;;;4.30;86.28
75438;BME280;64015;49.392;15.582;2023-03-26T03:59:51;94903.97;;;4.22;86.45
75438;BME280;64015;49.392;15.582;2023-03-26T04:02:18;94904.53;;;4.29;86.33
75438;BME280;64015;49.392;15.582;2023-03-26T04:04:59;94901.13;;;4.24;87.03
75438;BME280;64015;49.392;15.582;2023-03-26T04:07:26;94890.94;;;4.27;87.51
75438;BME280;64015;49.392;15.582;2023-03-26T04:09:55;94899.59;;;4.01;89.30
75438;BME280;64015;49.392;15.582;2023-03-26T04:12:20;94889.06;;;3.91;90.21
75438;BME280;64015;49.392;15.582;2023-03-26T04:14:47;94897.56;;;3.81;90.96
75438;BME280;64015;49.392;15.582;2023-03-26T04:17:12;94896.38;;;3.89;89.74
75438;BME280;64015;49.392;15.582;2023-03-26T04:19:39;94899.75;;;4.16;87.27
75438;BME280;64015;49.392;15.582;2023-03-26T04:22:05;94899.94;;;4.41;84.32
75438;BME280;64015;49.392;15.582;2023-03-26T04:24:31;94888.50;;;4.47;83.22
75438;BME280;64015;49.392;15.582;2023-03-26T04:27:06;94889.59;;;4.52;82.59
75438;BME280;64015;49.392;15.582;2023-03-26T04:29:39;94896.00;;;4.71;81.43
75438;BME280;64015;49.392;15.582;2023-03-26T04:32:11;94898.59;;;4.71;81.78
75438;BME280;64015;49.392;15.582;2023-03-26T04:34:38;94893.84;;;4.63;81.35
75438;BME280;64015;49.392;15.582;2023-03-26T04:37:04;94894.28;;;4.55;81.29
75438;BME280;64015;49.392;15.582;2023-03-26T04:39:30;94884.94;;;4.64;80.86
75438;BME280;64015;49.392;15.582;2023-03-26T04:41:58;94890.69;;;4.61;80.62
75438;BME280;64015;49.392;15.582;2023-03-26T04:44:25;94889.13;;;4.60;80.19
75438;BME280;64015;49.392;15.582;2023-03-26T04:46:50;94898.78;;;4.64;79.13
75438;BME280;64015;49.392;15.582;2023-03-26T04:49:18;94877.16;;;4.69;78.63
75438;BME280;64015;49.392;15.582;2023-03-26T04:51:44;94884.94;;;4.64;79.17
75438;BME280;64015;49.392;15.582;2023-03-26T04:54:15;94881.75;;;4.52;79.68
75438;BME280;64015;49.392;15.582;2023-03-26T04:59:18;94888.31;;;4.54;79.09
75438;BME280;64015;49.392;15.582;2023-03-26T05:01:44;94886.44;;;4.49;79.30
75438;BME280;64015;49.392;15.582;2023-03-26T05:04:12;94888.09;;;4.61;78.46
75438;BME280;64015;49.392;15.582;2023-03-26T05:06:39;94885.16;;;4.52;79.11
75438;BME280;64015;49.392;15.582;2023-03-26T05:09:06;94885.94;;;4.53;78.38
75438;BME280;64015;49.392;15.582;2023-03-26T05:11:33;94898.31;;;4.67;77.96
75438;BME280;64015;49.392;15.582;2023-03-26T05:13:58;94881.91;;;4.72;77.53
75438;BME280;64015;49.392;15.582;2023-03-26T05:16:24;94887.69;;;4.84;77.25
75438;BME280;64015;49.392;15.582;2023-03-26T05:18:51;94889.56;;;4.88;76.96
75438;BME280;64015;49.392;15.582;2023-03-26T05:21:16;94881.47;;;4.90;76.84
75438;BME280;64015;49.392;15.582;2023-03-26T05:23:42;94889.38;;;5.00;77.38
75438;BME280;64015;49.392;15.582;2023-03-26T05:26:08;94877.41;;;5.09;76.70
75438;BME280;64015;49.392;15.582;2023-03-26T05:28:35;94886.84;;;5.20;77.42
75438;BME280;64015;49.392;15.582;2023-03-26T05:31:01;94878.31;;;5.40;75.87
75438;BME280;64015;49.392;15.582;2023-03-26T05:33:27;94881.22;;;5.49;75.79
75438;BME280;64015;49.392;15.582;2023-03-26T05:36:03;94874.41;;;5.48;75.95
75438;BME280;64015;49.392;15.582;2023-03-26T05:38:30;94880.16;;;5.50;76.58
75438;BME280;64015;49.392;15.582;2023-03-26T05:41:00;94876.22;;;5.47;76.13
75438;BME280;64015;49.392;15.582;2023-03-26T05:43:27;94886.69;;;5.47;76.84
75438;BME280;64015;49.392;15.582;2023-03-26T05:45:52;94883.81;;;5.49;75.80
75438;BME280;64015;49.392;15.582;2023-03-26T05:48:18;94878.56;;;5.39;76.89
75438;BME280;64015;49.392;15.582;2023-03-26T05:50:49;94892.41;;;5.39;76.43
75438;BME280;64015;49.392;15.582;2023-03-26T05:53:16;94880.41;;;5.48;76.27
75438;BME280;64015;49.392;15.582;2023-03-26T05:55:43;94884.13;;;5.57;75.98
75438;BME280;64015;49.392;15.582;2023-03-26T05:58:11;94896.19;;;5.69;76.45
75438;BME280;64015;49.392;15.582;2023-03-26T06:00:37;94884.97;;;5.73;76.00
75438;BME280;64015;49.392;15.582;2023-03-26T06:03:04;94882.84;;;5.75;76.55
75438;BME280;64015;49.392;15.582;2023-03-26T06:05:35;94892.28;;;5.76;76.16
75438;BME280;64015;49.392;15.582;2023-03-26T06:08:02;94899.13;;;5.82;75.16
75438;BME280;64015;49.392;15.582;2023-03-26T06:10:28;94894.44;;;5.89;76.58
75438;BME280;64015;49.392;15.582;2023-03-26T06:12:54;94892.38;;;5.91;75.12
75438;BME280;64015;49.392;15.582;2023-03-26T06:15:20;94892.63;;;5.95;75.14
75438;BME280;64015;49.392;15.582;2023-03-26T06:17:46;94892.38;;;6.07;73.44
75438;BME280;64015;49.392;15.582;2023-03-26T06:20:12;94894.50;;;6.10;73.20
75438;BME280;64015;49.392;15.582;2023-03-26T06:22:38;94906.25;;;6.12;71.87
75438;BME280;64015;49.392;15.582;2023-03-26T06:25:05;94890.81;;;6.06;73.45
75438;BME280;64015;49.392;15.582;2023-03-26T06:27:31;94886.88;;;6.08;72.49
75438;BME280;64015;49.392;15.582;2023-03-26T06:29:56;94890.28;;;6.14;71.83
75438;BME280;64015;49.392;15.582;2023-03-26T06:32:22;94882.19;;;6.15;71.08
75438;BME280;64015;49.392;15.582;2023-03-26T06:34:48;94875.66;;;6.18;71.42
75438;BME280;64015;49.392;15.582;2023-03-26T06:37:14;94878.50;;;6.21;70.91
75438;BME280;64015;49.392;15.582;2023-03-26T06:39:40;94894.50;;;6.25;71.71
75438;BME280;64015;49.392;15.582;2023-03-26T06:42:06;94888.47;;;6.24;70.69
75438;BME280;64015;49.392;15.582;2023-03-26T06:44:32;94876.16;;;6.35;70.22
75438;BME280;64015;49.392;15.582;2023-03-26T06:46:58;94916.53;;;6.39;69.48
75438;BME280;64015;49.392;15.582;2023-03-26T06:49:23;94873.53;;;6.50;68.52
75438;BME280;64015;49.392;15.582;2023-03-26T06:51:49;94876.94;;;6.51;68.16
75438;BME280;64015;49.392;15.582;2023-03-26T06:54:15;94863.06;;;6.60;67.57
75438;BME280;64015;49.392;15.582;2023-03-26T06:56:41;94877.19;;;6.69;66.83
75438;BME280;64015;49.392;15.582;2023-03-26T06:59:07;94863.56;;;6.72;66.34
75438;BME280;64015;49.392;15.582;2023-03-26T07:01:33;94856.22;;;6.85;65.85
75438;BME280;64015;49.392;15.582;2023-03-26T07:03:58;94867.22;;;6.82;64.73
75438;BME280;64015;49.392;15.582;2023-03-26T07:06:25;94887.66;;;6.95;63.21
75438;BME280;64015;49.392;15.582;2023-03-26T07:08:50;94853.78;;;7.14;63.48
75438;BME280;64015;49.392;15.582;2023-03-26T07:11:16;94862.69;;;7.23;62.32
75438;BME280;64015;49.392;15.582;2023-03-26T07:13:44;94863.19;;;7.15;63.34
75438;BME280;64015;49.392;15.582;2023-03-26T07:16:12;94874.50;;;7.10;63.54
75438;BME280;64015;49.392;15.582;2023-03-26T07:18:38;94862.19;;;7.05;63.07
75438;BME280;64015;49.392;15.582;2023-03-26T07:21:04;94878.44;;;7.07;63.93
75438;BME280;64015;49.392;15.582;2023-03-26T07:23:30;94870.06;;;7.00;64.04
75438;BME280;64015;49.392;15.582;2023-03-26T07:25:56;94870.03;;;7.05;63.98
75438;BME280;64015;49.392;15.582;2023-03-26T07:33:57;94861.28;;;7.35;63.72
75438;BME280;64015;49.392;15.582;2023-03-26T07:36:34;94856.09;;;7.25;64.44
75438;BME280;64015;49.392;15.582;2023-03-26T07:44:18;94836.25;;;7.04;65.32
75438;BME280;64015;49.392;15.582;2023-03-26T07:46:48;94835.94;;;7.21;65.41
75438;BME280;64015;49.392;15.582;2023-03-26T07:49:17;94833.44;;;7.44;65.24
75438;BME280;64015;49.392;15.582;2023-03-26T07:51:46;94839.75;;;7.48;63.04
75438;BME280;64015;49.392;15.582;2023-03-26T07:54:12;94825.56;;;7.49;63.57
75438;BME280;64015;49.392;15.582;2023-03-26T07:56:50;94824.53;;;7.45;62.93
75438;BME280;64015;49.392;15.582;2023-03-26T08:10:54;94834.88;;;7.76;61.11
75438;BME280;64015;49.392;15.582;2023-03-26T08:19:08;94821.22;;;7.74;61.90
75438;BME280;64015;49.392;15.582;2023-03-26T08:22:25;94834.81;;;7.86;61.38
75438;BME280;64015;49.392;15.582;2023-03-26T08:24:41;94829.38;;;8.11;61.95
75438;BME280;64015;49.392;15.582;2023-03-26T08:32:36;94820.38;;;8.56;59.39
75438;BME280;64015;49.392;15.582;2023-03-26T08:35:02;94829.72;;;8.68;59.13
75438;BME280;64015;49.392;15.582;2023-03-26T08:37:31;94817.44;;;8.87;56.94
75438;BME280;64015;49.392;15.582;2023-03-26T08:39:57;94816.16;;;8.55;57.33
75438;BME280;64015;49.392;15.582;2023-03-26T08:56:38;94811.94;;;8.59;57.75
75438;BME280;64015;49.392;15.582;2023-03-26T09:10:20;94797.13;;;9.16;54.56
75438;BME280;64015;49.392;15.582;2023-03-26T09:16:00;94760.22;;;9.21;55.32
75438;BME280;64015;49.392;15.582;2023-03-26T09:35:54;94727.00;;;10.46;50.42
75438;BME280;64015;49.392;15.582;2023-03-26T09:46:51;94734.19;;;9.76;52.13
75438;BME280;64015;49.392;15.582;2023-03-26T10:02:57;94730.28;;;10.38;51.03
75438;BME280;64015;49.392;15.582;2023-03-26T10:41:55;94661.63;;;11.34;45.71
75438;BME280;64015;49.392;15.582;2023-03-26T10:50:01;94655.56;;;11.11;46.75
75438;BME280;64015;49.392;15.582;2023-03-26T10:52:36;94659.41;;;11.28;47.32
75438;BME280;64015;49.392;15.582;2023-03-26T10:55:16;94647.16;;;11.09;47.83
75438;BME280;64015;49.392;15.582;2023-03-26T10:57:52;94655.69;;;10.93;50.01
75438;BME280;64015;49.392;15.582;2023-03-26T11:00:22;94654.22;;;11.00;49.14
75438;BME280;64015;49.392;15.582;2023-03-26T11:05:57;94643.94;;;11.35;49.18
75438;BME280;64015;49.392;15.582;2023-03-26T11:08:38;94638.97;;;10.97;47.55
75438;BME280;64015;49.392;15.582;2023-03-26T11:11:24;94633.09;;;11.00;47.67
75438;BME280;64015;49.392;15.582;2023-03-26T11:17:19;94615.13;;;11.69;47.31
75438;BME280;64015;49.392;15.582;2023-03-26T11:20:02;94617.38;;;11.53;47.92
75438;BME280;64015;49.392;15.582;2023-03-26T11:25:41;94614.31;;;11.82;46.04
75438;BME280;64015;49.392;15.582;2023-03-26T11:28:25;94591.97;;;11.66;47.48
75438;BME280;64015;49.392;15.582;2023-03-26T11:33:34;94594.84;;;11.11;50.20
75438;BME280;64015;49.392;15.582;2023-03-26T11:36:06;94602.16;;;10.78;49.69
75438;BME280;64015;49.392;15.582;2023-03-26T11:38:52;94599.00;;;10.90;49.67
75438;BME280;64015;49.392;15.582;2023-03-26T11:41:22;94600.81;;;11.03;49.72
75438;BME280;64015;49.392;15.582;2023-03-26T11:44:22;94596.66;;;11.02;49.12
75438;BME280;64015;49.392;15.582;2023-03-26T11:46:54;94595.44;;;10.72;48.88
75438;BME280;64015;49.392;15.582;2023-03-26T11:49:25;94598.16;;;10.13;49.63
75438;BME280;64015;49.392;15.582;2023-03-26T11:51:52;94591.03;;;10.13;50.25
75438;BME280;64015;49.392;15.582;2023-03-26T11:54:18;94586.19;;;10.20;49.30
75438;BME280;64015;49.392;15.582;2023-03-26T11:59:26;94594.41;;;10.19;49.27
75438;BME280;64015;49.392;15.582;2023-03-26T12:01:58;94587.34;;;10.14;49.61
75438;BME280;64015;49.392;15.582;2023-03-26T12:09:56;94590.25;;;9.85;50.12
75438;BME280;64015;49.392;15.582;2023-03-26T12:12:48;94586.53;;;9.72;49.77
75438;BME280;64015;49.392;15.582;2023-03-26T12:15:19;94589.69;;;9.56;50.95
75438;BME280;64015;49.392;15.582;2023-03-26T12:17:50;94577.25;;;9.61;51.23
75438;BME280;64015;49.392;15.582;2023-03-26T12:22:54;94578.69;;;9.67;49.26
75438;BME280;64015;49.392;15.582;2023-03-26T12:25:33;94576.88;;;9.82;48.89
75438;BME280;64015;49.392;15.582;2023-03-26T12:30:39;94564.28;;;9.79;49.50
75438;BME280;64015;49.392;15.582;2023-03-26T12:33:14;94579.72;;;9.99;48.49
75438;BME280;64015;49.392;15.582;2023-03-26T12:35:42;94568.59;;;10.02;49.59
75438;BME280;64015;49.392;15.582;2023-03-26T12:41:11;94571.84;;;9.53;51.42
75438;BME280;64015;49.392;15.582;2023-03-26T12:43:53;94570.53;;;9.36;52.39
75438;BME280;64015;49.392;15.582;2023-03-26T12:46:26;94564.41;;;9.41;52.76
75438;BME280;64015;49.392;15.582;2023-03-26T12:48:52;94572.22;;;9.46;52.58
75438;BME280;64015;49.392;15.582;2023-03-26T12:57:19;94554.66;;;9.42;52.25
75438;BME280;64015;49.392;15.582;2023-03-26T12:59:52;94540.84;;;9.50;51.00
75438;BME280;64015;49.392;15.582;2023-03-26T13:05:27;94551.13;;;9.32;49.81
75438;BME280;64015;49.392;15.582;2023-03-26T13:08:32;94549.69;;;9.08;50.84
75438;BME280;64015;49.392;15.582;2023-03-26T13:19:14;94543.84;;;9.11;50.98
75438;BME280;64015;49.392;15.582;2023-03-26T13:22:03;94550.41;;;8.94;52.42
75438;BME280;64015;49.392;15.582;2023-03-26T13:27:33;94555.53;;;8.67;57.17
75438;BME280;64015;49.392;15.582;2023-03-26T13:35:34;94562.41;;;8.20;58.08
75438;BME280;64015;49.392;15.582;2023-03-26T13:38:28;94548.78;;;8.18;56.41
75438;BME280;64015;49.392;15.582;2023-03-26T13:44:03;94541.19;;;8.17;58.02
75438;BME280;64015;49.392;15.582;2023-03-26T13:46:52;94550.22;;;7.87;57.38
75438;BME280;64015;49.392;15.582;2023-03-26T13:49:41;94535.94;;;7.93;59.99
75438;BME280;64015;49.392;15.582;2023-03-26T13:52:32;94532.81;;;7.91;60.40
75438;BME280;64015;49.392;15.582;2023-03-26T13:57:52;94503.09;;;7.96;62.47
75438;BME280;64015;49.392;15.582;2023-03-26T14:00:24;94499.63;;;8.00;62.23
75438;BME280;64015;49.392;15.582;2023-03-26T14:02:56;94507.16;;;8.07;62.25
75438;BME280;64015;49.392;15.582;2023-03-26T14:05:38;94510.34;;;8.04;61.45
75438;BME280;64015;49.392;15.582;2023-03-26T14:10:46;94503.75;;;8.06;61.49
75438;BME280;64015;49.392;15.582;2023-03-26T14:18:51;94507.69;;;7.85;65.66
75438;BME280;64015;49.392;15.582;2023-03-26T14:27:00;94520.63;;;6.95;67.72
75438;BME280;64015;49.392;15.582;2023-03-26T14:35:41;94501.16;;;6.28;76.10
75438;BME280;64015;49.392;15.582;2023-03-26T14:41:23;94503.75;;;6.33;78.00
75438;BME280;64015;49.392;15.582;2023-03-26T14:47:05;94499.34;;;6.28;82.19
75438;BME280;64015;49.392;15.582;2023-03-26T14:49:31;94495.91;;;6.33;86.90
75438;BME280;64015;49.392;15.582;2023-03-26T14:52:09;94495.34;;;6.36;86.85
75438;BME280;64015;49.392;15.582;2023-03-26T14:54:40;94495.22;;;6.12;85.71
75438;BME280;64015;49.392;15.582;2023-03-26T15:39:45;94409.59;;;6.81;85.84
75438;BME280;64015;49.392;15.582;2023-03-26T15:48:11;94394.31;;;6.93;87.75
75438;BME280;64015;49.392;15.582;2023-03-26T15:53:55;94396.59;;;6.70;86.74
75438;BME280;64015;49.392;15.582;2023-03-26T16:05:23;94377.38;;;6.80;86.51
75438;BME280;64015;49.392;15.582;2023-03-26T16:10:28;94360.78;;;6.90;86.71
75438;BME280;64015;49.392;15.582;2023-03-26T16:15:54;94357.03;;;6.96;88.28
75438;BME280;64015;49.392;15.582;2023-03-26T16:21:01;94350.28;;;6.90;88.87
75438;BME280;64015;49.392;15.582;2023-03-26T16:23:33;94361.22;;;6.97;88.17
75438;BME280;64015;49.392;15.582;2023-03-26T16:31:24;94349.41;;;6.76;88.43
75438;BME280;64015;49.392;15.582;2023-03-26T16:34:17;94349.16;;;6.72;88.53
75438;BME280;64015;49.392;15.582;2023-03-26T16:36:45;94347.81;;;6.74;89.75
75438;BME280;64015;49.392;15.582;2023-03-26T16:39:37;94347.94;;;6.64;86.81
75438;BME280;64015;49.392;15.582;2023-03-26T16:42:31;94343.03;;;6.58;85.06
75438;BME280;64015;49.392;15.582;2023-03-26T16:45:20;94338.53;;;6.58;85.75
75438;BME280;64015;49.392;15.582;2023-03-26T16:48:05;94340.44;;;6.53;86.40
75438;BME280;64015;49.392;15.582;2023-03-26T16:50:55;94342.63;;;6.69;85.07
75438;BME280;64015;49.392;15.582;2023-03-26T16:53:44;94340.84;;;6.65;86.61
75438;BME280;64015;49.392;15.582;2023-03-26T16:58:55;94338.66;;;6.48;85.42
75438;BME280;64015;49.392;15.582;2023-03-26T17:04:04;94340.50;;;6.43;86.47
75438;BME280;64015;49.392;15.582;2023-03-26T17:09:23;94358.47;;;6.25;87.92
75438;BME280;64015;49.392;15.582;2023-03-26T17:14:41;94344.84;;;6.28;88.07
75438;BME280;64015;49.392;15.582;2023-03-26T17:17:39;94355.91;;;6.20;88.08
75438;BME280;64015;49.392;15.582;2023-03-26T17:20:21;94351.22;;;6.12;89.59
75438;BME280;64015;49.392;15.582;2023-03-26T17:25:39;94345.25;;;6.07;89.12
75438;BME280;64015;49.392;15.582;2023-03-26T17:28:17;94345.69;;;6.19;88.66
75438;BME280;64015;49.392;15.582;2023-03-26T17:33:36;94349.41;;;6.13;89.62
75438;BME280;64015;49.392;15.582;2023-03-26T17:36:19;94347.34;;;6.10;90.42
75438;BME280;64015;49.392;15.582;2023-03-26T17:41:24;94351.16;;;6.22;90.11
75438;BME280;64015;49.392;15.582;2023-03-26T17:44:04;94341.38;;;6.33;89.37
75438;BME280;64015;49.392;15.582;2023-03-26T17:46:48;94360.03;;;6.26;88.86
75438;BME280;64015;49.392;15.582;2023-03-26T17:49:23;94365.53;;;6.30;89.68
75438;BME280;64015;49.392;15.582;2023-03-26T17:56:52;94350.38;;;5.88;92.40
75438;BME280;64015;49.392;15.582;2023-03-26T17:59:21;94338.50;;;6.01;90.99
75438;BME280;64015;49.392;15.582;2023-03-26T18:01:50;94349.03;;;5.85;91.45
75438;BME280;64015;49.392;15.582;2023-03-26T18:04:20;94351.22;;;5.73;92.78
75438;BME280;64015;49.392;15.582;2023-03-26T18:07:05;94354.84;;;5.82;92.52
75438;BME280;64015;49.392;15.582;2023-03-26T18:15:23;94351.19;;;5.78;91.54
75438;BME280;64015;49.392;15.582;2023-03-26T18:18:17;94364.88;;;5.60;93.14
75438;BME280;64015;49.392;15.582;2023-03-26T18:20:46;94358.88;;;5.59;92.95
75438;BME280;64015;49.392;15.582;2023-03-26T18:26:18;94345.31;;;5.47;93.77
75438;BME280;64015;49.392;15.582;2023-03-26T18:28:50;94348.19;;;5.56;92.92
75438;BME280;64015;49.392;15.582;2023-03-26T18:31:24;94347.63;;;5.64;92.33
75438;BME280;64015;49.392;15.582;2023-03-26T18:33:55;94343.53;;;5.38;94.76
75438;BME280;64015;49.392;15.582;2023-03-26T18:36:25;94341.97;;;5.42;94.67
75438;BME280;64015;49.392;15.582;2023-03-26T18:38:58;94336.25;;;5.35;95.17
75438;BME280;64015;49.392;15.582;2023-03-26T18:41:34;94331.78;;;5.40;94.65
75438;BME280;64015;49.392;15.582;2023-03-26T18:44:14;94325.22;;;5.43;94.03
75438;BME280;64015;49.392;15.582;2023-03-26T18:46:41;94311.84;;;5.49;93.24
75438;BME280;64015;49.392;15.582;2023-03-26T18:49:15;94324.13;;;5.54;92.89
75438;BME280;64015;49.392;15.582;2023-03-26T18:51:42;94327.84;;;5.43;93.29
75438;BME280;64015;49.392;15.582;2023-03-26T18:54:14;94329.38;;;5.49;92.54
75438;BME280;64015;49.392;15.582;2023-03-26T18:56:42;94323.09;;;5.50;92.40
75438;BME280;64015;49.392;15.582;2023-03-26T18:59:29;94327.25;;;5.56;92.35
75438;BME280;64015;49.392;15.582;2023-03-26T19:02:18;94320.00;;;5.43;93.02
75438;BME280;64015;49.392;15.582;2023-03-26T19:04:43;94312.69;;;5.40;92.53
75438;BME280;64015;49.392;15.582;2023-03-26T19:07:13;94309.31;;;5.34;93.35
75438;BME280;64015;49.392;15.582;2023-03-26T19:09:40;94307.00;;;5.28;93.23
75438;BME280;64015;49.392;15.582;2023-03-26T19:12:15;94301.78;;;5.22;93.61
75438;BME280;64015;49.392;15.582;2023-03-26T19:17:31;94289.03;;;5.11;95.20
75438;BME280;64015;49.392;15.582;2023-03-26T19:20:01;94294.56;;;5.09;94.46
75438;BME280;64015;49.392;15.582;2023-03-26T19:22:28;94291.13;;;5.14;94.92
75438;BME280;64015;49.392;15.582;2023-03-26T19:25:00;94278.19;;;4.88;95.66